Time;durP1;ratioP1;P1;durP2;ratioP2;P2;SDS_P1;SDS_P2;PMS_P1;PMS_P2;Temp;Humidity;BMP_temperature;BMP_pressure;BME280_temperature;BME280_humidity;BME280_pressure;Samples;Min_cycle;Max_cycle;Signal;HPM_P1;HPM_P2
2023/04/24 00:00:31;;;;;;;;;0.00;0.00;;;;;-147.17;100.00;-15917.19;5005487;28;51139;-56
2023/04/24 00:02:57;;;;;;;;;0.00;0.00;;;;;-147.17;100.00;-15917.19;5008988;28;51847;-56
2023/04/24 00:05:23;;;;;;;;;0.00;0.00;;;;;-147.17;100.00;-15917.19;5001578;28;51086;-57
2023/04/24 00:07:52;;;;;;;;;0.00;0.00;;;;;-147.17;100.00;-15917.19;5006064;28;51325;-57
2023/04/24 00:10:18;;;;;;;;;0.00;0.00;;;;;-147.17;100.00;-15917.19;5006749;28;51261;-56
2023/04/24 00:12:43;;;;;;;;;0.00;0.00;;;;;-147.17;100.00;-15917.19;5011126;28;51988;-55
2023/04/24 00:15:09;;;;;;;;;0.00;0.00;;;;;-147.17;100.00;-15917.19;5005264;28;51385;-56
2023/04/24 00:17:35;;;;;;;;;0.00;0.00;;;;;-147.17;100.00;-15917.19;4990458;28;51216;-58
2023/04/24 00:20:01;;;;;;;;;0.00;0.00;;;;;-147.17;100.00;-15917.19;5006550;28;51324;-56
2023/04/24 00:22:28;;;;;;;;;0.00;0.00;;;;;-147.17;100.00;-15917.19;5006994;28;52937;-58
2023/04/24 00:24:54;;;;;;;;;0.00;0.00;;;;;-147.17;100.00;-15917.19;5008361;28;51264;-57
2023/04/24 00:27:19;;;;;;;;;0.00;0.00;;;;;-147.17;100.00;-15917.19;5010430;28;51094;-57
2023/04/24 00:29:44;;;;;;;;;1.00;1.00;;;;;-147.17;100.00;-15917.19;5009471;28;51287;-57
2023/04/24 00:32:10;;;;;;;;;0.00;0.00;;;;;-147.17;100.00;-15917.19;5008924;28;51792;-56
2023/04/24 00:34:35;;;;;;;;;0.00;0.00;;;;;-147.17;100.00;-15917.19;4992786;28;51052;-58
2023/04/24 00:37:01;;;;;;;;;0.00;0.00;;;;;-147.17;100.00;-15917.19;5009093;28;51233;-58
2023/04/24 00:39:26;;;;;;;;;0.00;0.00;;;;;-147.17;100.00;-15917.19;5007425;28;52805;-58
2023/04/24 00:41:52;;;;;;;;;0.00;0.00;;;;;-147.17;100.00;-15917.19;5008340;28;51788;-58
2023/04/24 00:44:18;;;;;;;;;0.00;0.00;;;;;-147.17;100.00;-15917.19;5010965;28;50998;-58
2023/04/24 00:46:44;;;;;;;;;0.00;0.00;;;;;-147.17;100.00;-15917.19;5006544;28;50997;-58
2023/04/24 00:49:10;;;;;;;;;0.00;0.00;;;;;-147.17;100.00;-15917.19;5011950;28;51236;-60
2023/04/24 00:51:36;;;;;;;;;0.00;0.00;;;;;-147.17;100.00;-15917.19;5006818;28;51976;-57
2023/04/24 00:54:01;;;;;;;;;0.00;0.00;;;;;-147.17;100.00;-15917.19;5011715;28;51192;-58
2023/04/24 00:56:28;;;;;;;;;0.00;0.00;;;;;-147.17;100.00;-15917.19;5008599;28;51126;-59
2023/04/24 00:58:53;;;;;;;;;27.00;27.00;;;;;-147.17;100.00;-15917.19;5014283;28;50997;-59
2023/04/24 01:01:20;;;;;;;;;0.00;0.00;;;;;-147.17;100.00;-15917.19;5010563;28;51105;-58
2023/04/24 01:03:46;;;;;;;;;0.00;0.00;;;;;-147.17;100.00;-15917.19;5014443;28;51381;-59
2023/04/24 01:06:12;;;;;;;;;0.00;0.00;;;;;-147.17;100.00;-15917.19;5010280;28;51439;-59
2023/04/24 01:08:39;;;;;;;;;0.00;0.00;;;;;-147.17;100.00;-15917.19;5014942;28;51069;-59
2023/04/24 01:11:05;;;;;;;;;0.00;0.00;;;;;-147.17;100.00;-15917.19;5010610;28;52452;-58
2023/04/24 01:13:32;;;;;;;;;0.00;0.00;;;;;-147.17;100.00;-15917.19;4996489;28;51038;-59
2023/04/24 01:15:57;;;;;;;;;0.00;0.00;;;;;-147.17;100.00;-15917.19;5010015;28;51172;-59
2023/04/24 01:18:22;;;;;;;;;0.00;0.00;;;;;-147.17;100.00;-15917.19;5010389;28;51456;-59
2023/04/24 01:20:52;;;;;;;;;0.00;0.00;;;;;-147.17;100.00;-15917.19;5012422;28;51769;-60
2023/04/24 01:23:18;;;;;;;;;0.00;0.00;;;;;-147.17;100.00;-15917.19;4997045;28;51164;-59
2023/04/24 01:25:44;;;;;;;;;0.00;0.00;;;;;-147.17;100.00;-15917.19;5006764;28;51282;-59
2023/04/24 01:28:10;;;;;;;;;0.00;0.00;;;;;-147.17;100.00;-15917.19;5014371;28;52671;-58
2023/04/24 01:30:36;;;;;;;;;0.00;0.00;;;;;-147.17;100.00;-15917.19;5009741;28;51208;-58
2023/04/24 01:33:02;;;;;;;;;0.00;0.00;;;;;-147.17;100.00;-15917.19;5013955;28;50915;-58
2023/04/24 01:35:27;;;;;;;;;0.00;0.00;;;;;-147.17;100.00;-15917.19;5009881;28;51340;-59
2023/04/24 01:37:53;;;;;;;;;0.00;0.00;;;;;-147.17;100.00;-15917.19;5014865;28;51136;-60
2023/04/24 01:40:18;;;;;;;;;0.00;0.00;;;;;-147.17;100.00;-15917.19;5011003;28;51806;-58
2023/04/24 01:42:45;;;;;;;;;0.00;0.00;;;;;-147.17;100.00;-15917.19;5014027;28;51125;-60
2023/04/24 01:45:12;;;;;;;;;0.00;0.00;;;;;-147.17;100.00;-15917.19;5009561;28;51628;-59
2023/04/24 01:47:37;;;;;;;;;0.00;0.00;;;;;-147.17;100.00;-15917.19;5007912;28;51099;-58
2023/04/24 01:50:04;;;;;;;;;0.00;0.00;;;;;-147.17;100.00;-15917.19;5010943;28;51167;-58
2023/04/24 01:52:31;;;;;;;;;0.00;0.00;;;;;-147.17;100.00;-15917.19;5013572;28;51134;-59
2023/04/24 01:54:59;;;;;;;;;0.00;0.00;;;;;-147.17;100.00;-15917.19;5009714;28;51889;-59
2023/04/24 01:57:24;;;;;;;;;0.00;0.00;;;;;-147.17;100.00;-15917.19;5013107;28;51306;-59
2023/04/24 01:59:50;;;;;;;;;0.00;0.00;;;;;-147.17;100.00;-15917.19;5007129;28;51819;-58
2023/04/24 02:02:16;;;;;;;;;0.00;0.00;;;;;-147.17;100.00;-15917.19;5011382;28;51411;-59
2023/04/24 02:04:41;;;;;;;;;0.00;0.00;;;;;-147.17;100.00;-15917.19;5012033;28;51018;-60
2023/04/24 02:07:06;;;;;;;;;0.00;0.00;;;;;-147.17;100.00;-15917.19;5010814;28;51079;-58
2023/04/24 02:09:32;;;;;;;;;0.00;0.00;;;;;-147.17;100.00;-15917.19;5011417;28;51140;-59
2023/04/24 02:11:57;;;;;;;;;0.00;0.00;;;;;-147.17;100.00;-15917.19;5010903;28;51144;-58
2023/04/24 02:14:22;;;;;;;;;0.00;0.00;;;;;-147.17;100.00;-15917.19;5013279;28;51128;-59
2023/04/24 02:16:48;;;;;;;;;0.00;0.00;;;;;-147.17;100.00;-15917.19;5012768;28;53309;-59
2023/04/24 02:19:13;;;;;;;;;0.00;0.00;;;;;-147.17;100.00;-15917.19;5012453;28;52180;-59
2023/04/24 02:21:38;;;;;;;;;0.00;0.00;;;;;-147.17;100.00;-15917.19;5008319;28;57115;-59
2023/04/24 02:24:04;;;;;;;;;0.00;0.00;;;;;-147.17;100.00;-15917.19;5013391;28;51006;-60
2023/04/24 02:26:31;;;;;;;;;0.00;0.00;;;;;-147.17;100.00;-15917.19;5009001;28;51136;-59
2023/04/24 02:28:57;;;;;;;;;0.00;0.00;;;;;-147.17;100.00;-15917.19;4994600;28;53856;-59
2023/04/24 02:31:22;;;;;;;;;0.00;0.00;;;;;-147.17;100.00;-15917.19;5009379;28;52568;-58
2023/04/24 02:33:47;;;;;;;;;0.00;0.00;;;;;-147.17;100.00;-15917.19;5011335;28;51323;-59
2023/04/24 02:36:13;;;;;;;;;0.00;0.00;;;;;-147.17;100.00;-15917.19;5010856;28;51356;-59
2023/04/24 02:38:39;;;;;;;;;0.00;0.00;;;;;-147.17;100.00;-15917.19;5010911;28;52254;-61
2023/04/24 02:41:06;;;;;;;;;0.00;0.00;;;;;-147.17;100.00;-15917.19;5009500;28;51439;-59
2023/04/24 02:43:32;;;;;;;;;0.00;0.00;;;;;-147.17;100.00;-15917.19;4995540;28;51160;-59
2023/04/24 02:45:57;;;;;;;;;0.00;0.00;;;;;-147.17;100.00;-15917.19;5010043;28;51235;-59
2023/04/24 02:48:23;;;;;;;;;0.00;0.00;;;;;-147.17;100.00;-15917.19;5012467;28;52002;-60
2023/04/24 02:50:48;;;;;;;;;0.00;0.00;;;;;-147.17;100.00;-15917.19;5010364;28;51087;-60
2023/04/24 02:53:14;;;;;;;;;0.00;0.00;;;;;-147.17;100.00;-15917.19;5013834;28;51193;-60
2023/04/24 02:55:39;;;;;;;;;0.00;0.00;;;;;-147.17;100.00;-15917.19;5009939;28;51576;-60
2023/04/24 02:58:05;;;;;;;;;0.00;0.00;;;;;-147.17;100.00;-15917.19;5013436;28;52039;-59
2023/04/24 03:00:31;;;;;;;;;0.00;0.00;;;;;-147.17;100.00;-15917.19;5008680;28;51067;-60
2023/04/24 03:02:56;;;;;;;;;0.00;0.00;;;;;-147.17;100.00;-15917.19;5009493;28;51355;-60
2023/04/24 03:05:22;;;;;;;;;0.00;0.00;;;;;-147.17;100.00;-15917.19;5009448;28;51299;-59
2023/04/24 03:07:47;;;;;;;;;0.00;0.00;;;;;-147.17;100.00;-15917.19;4991097;28;52859;-60
2023/04/24 03:10:13;;;;;;;;;0.00;0.00;;;;;-147.17;100.00;-15917.19;5009166;28;51068;-59
2023/04/24 03:12:38;;;;;;;;;0.00;0.00;;;;;-147.17;100.00;-15917.19;5013524;28;51396;-60
2023/04/24 03:15:04;;;;;;;;;0.00;0.00;;;;;-147.17;100.00;-15917.19;5012452;28;51381;-59
2023/04/24 03:17:29;;;;;;;;;0.00;0.00;;;;;-147.17;100.00;-15917.19;4995017;28;51805;-59
2023/04/24 03:19:55;;;;;;;;;0.00;0.00;;;;;-147.17;100.00;-15917.19;5010103;28;51080;-59
2023/04/24 03:22:20;;;;;;;;;0.00;0.00;;;;;-147.17;100.00;-15917.19;5011846;28;51001;-59
2023/04/24 03:24:46;;;;;;;;;0.00;0.00;;;;;-147.17;100.00;-15917.19;5009971;28;51106;-59
2023/04/24 03:27:11;;;;;;;;;0.00;0.00;;;;;-147.17;100.00;-15917.19;5011665;28;51797;-60
2023/04/24 03:29:36;;;;;;;;;0.00;0.00;;;;;-147.17;100.00;-15917.19;5011184;28;51017;-61
2023/04/24 03:32:02;;;;;;;;;0.00;0.00;;;;;-147.17;100.00;-15917.19;5009111;28;51187;-61
2023/04/24 03:34:27;;;;;;;;;0.00;0.00;;;;;-147.17;100.00;-15917.19;4991591;28;51345;-61
2023/04/24 03:36:53;;;;;;;;;0.00;0.00;;;;;-147.17;100.00;-15917.19;4992456;28;51831;-60
2023/04/24 03:39:18;;;;;;;;;0.00;0.00;;;;;-147.17;100.00;-15917.19;5012958;28;50996;-60
2023/04/24 03:41:44;;;;;;;;;0.00;0.00;;;;;-147.17;100.00;-15917.19;5008838;28;51053;-60
2023/04/24 03:44:09;;;;;;;;;0.00;0.00;;;;;-147.17;100.00;-15917.19;5012517;28;50939;-60
2023/04/24 03:46:35;;;;;;;;;0.00;0.00;;;;;-147.17;100.00;-15917.19;5008948;28;51210;-60
2023/04/24 03:49:00;;;;;;;;;0.00;0.00;;;;;-147.17;100.00;-15917.19;5012343;28;50958;-60
2023/04/24 03:51:27;;;;;;;;;0.00;0.00;;;;;-147.17;100.00;-15917.19;5008884;28;51294;-60
2023/04/24 03:53:53;;;;;;;;;0.00;0.00;;;;;-147.17;100.00;-15917.19;5013091;28;50840;-60
2023/04/24 03:56:18;;;;;;;;;0.00;0.00;;;;;-147.17;100.00;-15917.19;5009100;28;52450;-60
2023/04/24 03:58:43;;;;;;;;;0.00;0.00;;;;;-147.17;100.00;-15917.19;4993462;28;51105;-60
2023/04/24 04:01:08;;;;;;;;;0.00;0.00;;;;;-147.17;100.00;-15917.19;5008394;28;51204;-60
2023/04/24 04:03:34;;;;;;;;;0.00;0.00;;;;;-147.17;100.00;-15917.19;5011768;28;51437;-60
2023/04/24 04:06:00;;;;;;;;;0.00;0.00;;;;;-147.17;100.00;-15917.19;4990809;28;53010;-59
2023/04/24 04:08:26;;;;;;;;;0.00;0.00;;;;;-147.17;100.00;-15917.19;5012684;28;51163;-59
2023/04/24 04:10:51;;;;;;;;;0.00;0.00;;;;;-147.17;100.00;-15917.19;5008737;28;51394;-59
2023/04/24 04:13:16;;;;;;;;;0.00;0.00;;;;;-147.17;100.00;-15917.19;5012302;28;51368;-60
2023/04/24 04:15:42;;;;;;;;;0.00;0.00;;;;;-147.17;100.00;-15917.19;5008419;28;52017;-60
2023/04/24 04:18:08;;;;;;;;;0.00;0.00;;;;;-147.17;100.00;-15917.19;5012275;28;51052;-60
2023/04/24 04:20:33;;;;;;;;;0.00;0.00;;;;;-147.17;100.00;-15917.19;4990345;28;51091;-60
2023/04/24 04:22:58;;;;;;;;;0.00;0.00;;;;;-147.17;100.00;-15917.19;5012698;28;51121;-61
2023/04/24 04:25:24;;;;;;;;;0.00;0.00;;;;;-147.17;100.00;-15917.19;5008372;28;51189;-61
2023/04/24 04:27:50;;;;;;;;;0.00;0.00;;;;;-147.17;100.00;-15917.19;5011706;28;51045;-59
2023/04/24 04:30:16;;;;;;;;;0.00;0.00;;;;;-147.17;100.00;-15917.19;5008379;28;51152;-61
2023/04/24 04:32:41;;;;;;;;;0.00;0.00;;;;;-147.17;100.00;-15917.19;5015342;28;50862;-61
2023/04/24 04:35:07;;;;;;;;;0.00;0.00;;;;;-147.17;100.00;-15917.19;5012296;28;51782;-63
2023/04/24 04:37:33;;;;;;;;;0.00;0.00;;;;;-147.17;100.00;-15917.19;5015290;28;50950;-60
2023/04/24 04:39:59;;;;;;;;;0.00;0.00;;;;;-147.17;100.00;-15917.19;5012387;28;51897;-60
2023/04/24 04:42:26;;;;;;;;;1.00;1.00;;;;;-147.17;100.00;-15917.19;5013867;28;51189;-61
2023/04/24 04:44:52;;;;;;;;;0.00;0.00;;;;;-147.17;100.00;-15917.19;5013027;28;51254;-61
2023/04/24 04:47:18;;;;;;;;;0.00;0.00;;;;;-147.17;100.00;-15917.19;5014109;28;51295;-61
2023/04/24 04:49:43;;;;;;;;;0.00;0.00;;;;;-147.17;100.00;-15917.19;5012895;28;51832;-61
2023/04/24 04:52:09;;;;;;;;;0.00;0.00;;;;;-147.17;100.00;-15917.19;5008508;28;51163;-60
2023/04/24 04:54:35;;;;;;;;;0.00;0.00;;;;;-147.17;100.00;-15917.19;5012934;28;52846;-60
2023/04/24 04:57:00;;;;;;;;;0.00;0.00;;;;;-147.17;100.00;-15917.19;5012355;28;51585;-59
2023/04/24 04:59:26;;;;;;;;;0.00;0.00;;;;;-147.17;100.00;-15917.19;5014096;28;51022;-61
2023/04/24 05:01:52;;;;;;;;;0.00;0.00;;;;;-147.17;100.00;-15917.19;5010144;28;51367;-59
2023/04/24 05:04:17;;;;;;;;;0.00;0.00;;;;;-147.17;100.00;-15917.19;5014420;28;51841;-60
2023/04/24 05:06:42;;;;;;;;;0.00;0.00;;;;;-147.17;100.00;-15917.19;5011697;28;51231;-60
2023/04/24 05:09:08;;;;;;;;;0.00;0.00;;;;;-147.17;100.00;-15917.19;5013996;28;51099;-61
2023/04/24 05:11:33;;;;;;;;;0.00;0.00;;;;;-147.17;100.00;-15917.19;5011541;28;51419;-60
2023/04/24 05:13:58;;;;;;;;;0.00;0.00;;;;;-147.17;100.00;-15917.19;5015318;28;51977;-60
2023/04/24 05:16:24;;;;;;;;;0.00;0.00;;;;;-147.17;100.00;-15917.19;5011512;28;51132;-61
2023/04/24 05:18:49;;;;;;;;;0.00;0.00;;;;;-147.17;100.00;-15917.19;5014405;28;51311;-61
2023/04/24 05:21:14;;;;;;;;;0.00;0.00;;;;;-147.17;100.00;-15917.19;5007059;28;51420;-61
2023/04/24 05:23:40;;;;;;;;;0.00;0.00;;;;;-147.17;100.00;-15917.19;5014117;28;52812;-61
2023/04/24 05:26:05;;;;;;;;;0.00;0.00;;;;;-147.17;100.00;-15917.19;4993428;28;51198;-61
2023/04/24 05:28:31;;;;;;;;;0.00;0.00;;;;;-147.17;100.00;-15917.19;5014389;28;51033;-62
2023/04/24 05:30:56;;;;;;;;;0.00;0.00;;;;;-147.17;100.00;-15917.19;5012457;28;51054;-60
2023/04/24 05:33:22;;;;;;;;;0.00;0.00;;;;;-147.17;100.00;-15917.19;5014466;28;52044;-60
2023/04/24 05:35:48;;;;;;;;;0.00;0.00;;;;;-147.17;100.00;-15917.19;5011439;28;51085;-62
2023/04/24 05:38:17;;;;;;;;;7.67;7.67;;;;;-147.17;100.00;-15917.19;5014767;28;51172;-60
2023/04/24 05:40:42;;;;;;;;;0.00;0.00;;;;;-147.17;100.00;-15917.19;5008315;28;51322;-60
2023/04/24 05:43:09;;;;;;;;;0.00;0.00;;;;;-147.17;100.00;-15917.19;5013038;28;52132;-62
2023/04/24 05:45:35;;;;;;;;;0.00;0.00;;;;;-147.17;100.00;-15917.19;4991343;28;51709;-59
2023/04/24 05:48:01;;;;;;;;;0.00;0.00;;;;;-147.17;100.00;-15917.19;4999228;28;51135;-60
2023/04/24 05:50:27;;;;;;;;;0.00;0.00;;;;;-147.17;100.00;-15917.19;5007523;28;51316;-60
2023/04/24 05:52:53;;;;;;;;;0.00;0.00;;;;;-147.17;100.00;-15917.19;5013294;28;51100;-61
2023/04/24 05:55:18;;;;;;;;;0.00;0.00;;;;;-147.17;100.00;-15917.19;5009892;28;51667;-60
2023/04/24 05:57:43;;;;;;;;;0.00;0.00;;;;;-147.17;100.00;-15917.19;5011683;28;51170;-60
2023/04/24 06:00:11;;;;;;;;;0.00;0.00;;;;;-147.17;100.00;-15917.19;5007833;28;50875;-60
2023/04/24 06:02:37;;;;;;;;;0.00;0.00;;;;;-147.17;100.00;-15917.19;5010623;28;51130;-60
2023/04/24 06:05:04;;;;;;;;;0.00;0.00;;;;;-147.17;100.00;-15917.19;5015987;28;51233;-60
2023/04/24 06:07:30;;;;;;;;;0.00;0.00;;;;;-147.17;100.00;-15917.19;5010954;28;51210;-60
2023/04/24 06:09:56;;;;;;;;;0.00;0.00;;;;;-147.17;100.00;-15917.19;5009164;28;51263;-60
2023/04/24 06:12:21;;;;;;;;;0.00;0.00;;;;;-147.17;100.00;-15917.19;5011316;28;52126;-60
2023/04/24 06:14:47;;;;;;;;;0.00;0.00;;;;;-147.17;100.00;-15917.19;4991214;28;51049;-59
2023/04/24 06:17:13;;;;;;;;;0.00;0.00;;;;;-147.17;100.00;-15917.19;5013613;28;51081;-60
2023/04/24 06:19:38;;;;;;;;;0.00;0.00;;;;;-147.17;100.00;-15917.19;4994162;28;51006;-60
2023/04/24 06:22:04;;;;;;;;;0.00;0.00;;;;;-147.17;100.00;-15917.19;5011919;28;51073;-60
2023/04/24 06:24:29;;;;;;;;;0.00;0.00;;;;;-147.17;100.00;-15917.19;5011772;28;51192;-61
2023/04/24 06:26:56;;;;;;;;;0.00;0.00;;;;;-147.17;100.00;-15917.19;5012831;28;51178;-60
2023/04/24 06:29:21;;;;;;;;;0.00;0.00;;;;;-147.17;100.00;-15917.19;5013578;28;51002;-60
2023/04/24 06:31:47;;;;;;;;;0.00;0.00;;;;;-147.17;100.00;-15917.19;5002888;28;51596;-63
2023/04/24 06:34:12;;;;;;;;;0.00;0.00;;;;;-147.17;100.00;-15917.19;5013915;28;51326;-59
2023/04/24 06:36:38;;;;;;;;;0.00;0.00;;;;;-147.17;100.00;-15917.19;5009564;28;52058;-61
2023/04/24 06:39:03;;;;;;;;;0.00;0.00;;;;;-147.17;100.00;-15917.19;5013838;28;51008;-60
2023/04/24 06:41:29;;;;;;;;;0.00;0.00;;;;;-147.17;100.00;-15917.19;5009690;28;52340;-61
2023/04/24 06:43:54;;;;;;;;;0.00;0.00;;;;;-147.17;100.00;-15917.19;5012886;28;51168;-60
2023/04/24 06:46:23;;;;;;;;;0.00;0.00;;;;;-147.17;100.00;-15917.19;5009604;28;51021;-60
2023/04/24 06:48:48;;;;;;;;;0.00;0.00;;;;;-147.17;100.00;-15917.19;5005848;28;51149;-61
2023/04/24 06:51:14;;;;;;;;;0.00;0.00;;;;;-147.17;100.00;-15917.19;5009592;28;52831;-61
2023/04/24 06:53:39;;;;;;;;;0.00;0.00;;;;;-147.17;100.00;-15917.19;4987664;28;51156;-59
2023/04/24 06:56:04;;;;;;;;;0.00;0.00;;;;;-147.17;100.00;-15917.19;5002962;28;51522;-61
2023/04/24 06:58:30;;;;;;;;;0.00;0.00;;;;;-147.17;100.00;-15917.19;5012746;28;51075;-59
2023/04/24 07:00:55;;;;;;;;;0.00;0.00;;;;;-147.17;100.00;-15917.19;5009460;28;52319;-62
2023/04/24 07:03:21;;;;;;;;;0.00;0.00;;;;;-147.17;100.00;-15917.19;5012349;28;51078;-60
2023/04/24 07:05:47;;;;;;;;;0.00;0.00;;;;;-147.17;100.00;-15917.19;4991662;28;51223;-62
2023/04/24 07:08:13;;;;;;;;;1.00;1.00;;;;;-147.17;100.00;-15917.19;5011542;28;51235;-61
2023/04/24 07:10:39;;;;;;;;;0.00;0.00;;;;;-147.17;100.00;-15917.19;5006281;28;51778;-62
2023/04/24 07:13:04;;;;;;;;;0.00;0.00;;;;;-147.17;100.00;-15917.19;5012577;28;51113;-61
2023/04/24 07:15:30;;;;;;;;;0.00;0.00;;;;;-147.17;100.00;-15917.19;4989974;28;51412;-62
2023/04/24 07:17:55;;;;;;;;;0.00;0.00;;;;;-147.17;100.00;-15917.19;5011581;28;51327;-62
2023/04/24 07:20:21;;;;;;;;;0.00;0.00;;;;;-147.17;100.00;-15917.19;5008083;28;51669;-63
2023/04/24 07:22:48;;;;;;;;;0.33;0.33;;;;;-147.17;100.00;-15917.19;4994705;28;51049;-63
2023/04/24 07:25:13;;;;;;;;;0.00;0.00;;;;;-147.17;100.00;-15917.19;4984954;28;51276;-62
2023/04/24 07:27:39;;;;;;;;;0.00;0.00;;;;;-147.17;100.00;-15917.19;5012776;28;51297;-63
2023/04/24 07:30:05;;;;;;;;;0.00;0.00;;;;;-147.17;100.00;-15917.19;5008980;28;51916;-63
2023/04/24 07:32:30;;;;;;;;;0.00;0.00;;;;;-147.17;100.00;-15917.19;5013061;28;51262;-62
2023/04/24 07:34:56;;;;;;;;;0.00;0.00;;;;;-147.17;100.00;-15917.19;4991525;28;51378;-63
2023/04/24 07:37:22;;;;;;;;;0.00;0.00;;;;;-147.17;100.00;-15917.19;5010929;28;51082;-62
2023/04/24 07:39:47;;;;;;;;;0.00;0.00;;;;;-147.17;100.00;-15917.19;4992033;28;51954;-63
2023/04/24 07:42:13;;;;;;;;;0.00;0.00;;;;;-147.17;100.00;-15917.19;5003105;28;51158;-64
2023/04/24 07:44:38;;;;;;;;;0.00;0.00;;;;;-147.17;100.00;-15917.19;4987524;28;51593;-63
2023/04/24 07:47:03;;;;;;;;;0.00;0.00;;;;;-147.17;100.00;-15917.19;4993489;28;51267;-63
2023/04/24 07:49:29;;;;;;;;;0.00;0.00;;;;;-147.17;100.00;-15917.19;5010462;28;52538;-64
2023/04/24 07:51:54;;;;;;;;;0.00;0.00;;;;;-147.17;100.00;-15917.19;5006295;28;51136;-64
2023/04/24 07:54:20;;;;;;;;;0.00;0.00;;;;;-147.17;100.00;-15917.19;5008810;28;51065;-63
2023/04/24 07:56:45;;;;;;;;;0.00;0.00;;;;;-147.17;100.00;-15917.19;5008352;28;51519;-63
2023/04/24 07:59:11;;;;;;;;;0.00;0.00;;;;;-147.17;100.00;-15917.19;5004010;28;51140;-64
2023/04/24 08:01:36;;;;;;;;;0.00;0.00;;;;;-147.17;100.00;-15917.19;5007236;28;51603;-62
2023/04/24 08:04:02;;;;;;;;;0.00;0.00;;;;;-147.17;100.00;-15917.19;5010945;28;51342;-64
2023/04/24 08:06:30;;;;;;;;;0.00;0.00;;;;;-147.17;100.00;-15917.19;5011139;28;51264;-63
2023/04/24 08:08:56;;;;;;;;;0.00;0.00;;;;;-147.17;100.00;-15917.19;5014573;28;52723;-64
2023/04/24 08:11:21;;;;;;;;;0.00;0.00;;;;;-147.17;100.00;-15917.19;5008437;28;51439;-63
2023/04/24 08:13:47;;;;;;;;;0.00;0.00;;;;;-147.17;100.00;-15917.19;5010786;28;50880;-63
2023/04/24 08:16:12;;;;;;;;;0.00;0.00;;;;;-147.17;100.00;-15917.19;5006499;28;51096;-63
2023/04/24 08:18:38;;;;;;;;;0.00;0.00;;;;;-147.17;100.00;-15917.19;5011202;28;50977;-62
2023/04/24 08:21:03;;;;;;;;;0.00;0.00;;;;;-147.17;100.00;-15917.19;5007624;28;51149;-61
2023/04/24 08:23:29;;;;;;;;;0.00;0.00;;;;;-147.17;100.00;-15917.19;4999511;28;51057;-62
2023/04/24 08:25:55;;;;;;;;;0.00;0.00;;;;;-147.17;100.00;-15917.19;5011352;28;51081;-63
2023/04/24 08:28:20;;;;;;;;;0.00;0.00;;;;;-147.17;100.00;-15917.19;5014481;28;51814;-62
2023/04/24 08:30:54;;;;;;;;;0.00;0.00;;;;;-147.17;100.00;-15917.19;5011440;28;51096;-62
2023/04/24 08:33:21;;;;;;;;;0.00;0.00;;;;;-147.17;100.00;-15917.19;5013716;28;51275;-59
2023/04/24 08:35:47;;;;;;;;;0.00;0.00;;;;;-147.17;100.00;-15917.19;5011110;28;51390;-58
2023/04/24 08:38:12;;;;;;;;;2.00;2.00;;;;;-147.17;100.00;-15917.19;5014442;28;51925;-60
2023/04/24 08:40:38;;;;;;;;;0.00;0.00;;;;;-147.17;100.00;-15917.19;4993555;28;51680;-59
2023/04/24 08:43:03;;;;;;;;;0.00;0.00;;;;;-147.17;100.00;-15917.19;5013592;28;51071;-59
2023/04/24 08:45:29;;;;;;;;;0.00;0.00;;;;;-147.17;100.00;-15917.19;5011023;28;51698;-59
2023/04/24 08:47:55;;;;;;;;;0.00;0.00;;;;;-147.17;100.00;-15917.19;5013047;28;52499;-59
2023/04/24 08:50:21;;;;;;;;;0.00;0.00;;;;;-147.17;100.00;-15917.19;5009183;28;51237;-57
2023/04/24 08:52:50;;;;;;;;;0.00;0.00;;;;;-147.17;100.00;-15917.19;5013928;28;51014;-59
2023/04/24 08:55:17;;;;;;;;;0.00;0.00;;;;;-147.17;100.00;-15917.19;4991673;28;51719;-59
2023/04/24 08:57:45;;;;;;;;;0.00;0.00;;;;;-147.17;100.00;-15917.19;5012799;28;52605;-59
2023/04/24 09:00:11;;;;;;;;;0.00;0.00;;;;;-147.17;100.00;-15917.19;5010202;28;51152;-59
2023/04/24 09:02:39;;;;;;;;;0.00;0.00;;;;;-147.17;100.00;-15917.19;5008720;28;51156;-59
2023/04/24 09:05:06;;;;;;;;;0.33;0.33;;;;;-147.17;100.00;-15917.19;4990932;28;50984;-59
2023/04/24 09:07:34;;;;;;;;;0.00;0.00;;;;;-147.17;100.00;-15917.19;4985204;28;52295;-63
2023/04/24 09:10:01;;;;;;;;;0.00;0.00;;;;;-147.17;100.00;-15917.19;4991725;28;51172;-58
2023/04/24 09:12:27;;;;;;;;;0.00;0.00;;;;;-147.17;100.00;-15917.19;4981707;28;51187;-57
2023/04/24 09:14:53;;;;;;;;;0.00;0.00;;;;;-147.17;100.00;-15917.19;4989241;28;51694;-58
2023/04/24 09:17:19;;;;;;;;;0.00;0.00;;;;;-147.17;100.00;-15917.19;4986873;28;51912;-58
2023/04/24 09:19:44;;;;;;;;;0.00;0.00;;;;;-147.17;100.00;-15917.19;4990650;28;52844;-58
2023/04/24 09:22:11;;;;;;;;;0.00;0.00;;;;;-147.17;100.00;-15917.19;4990510;28;51204;-59
2023/04/24 09:24:36;;;;;;;;;0.00;0.00;;;;;-147.17;100.00;-15917.19;4993315;28;51013;-59
2023/04/24 09:27:02;;;;;;;;;0.00;0.00;;;;;-147.17;100.00;-15917.19;4993368;28;51032;-59
2023/04/24 09:29:28;;;;;;;;;0.00;0.00;;;;;-147.17;100.00;-15917.19;4993175;28;51181;-58
2023/04/24 09:31:54;;;;;;;;;0.00;0.00;;;;;-147.17;100.00;-15917.19;4993701;28;50966;-60
2023/04/24 09:34:24;;;;;;;;;0.00;0.00;;;;;-147.17;100.00;-15917.19;4993507;28;50935;-59
2023/04/24 09:36:49;;;;;;;;;0.00;0.00;;;;;-147.17;100.00;-15917.19;4993721;28;51576;-60
2023/04/24 09:39:16;;;;;;;;;0.00;0.00;;;;;-147.17;100.00;-15917.19;4994014;28;51106;-59
2023/04/24 09:42:02;;;;;;;;;0.00;0.00;;;;;-147.17;100.00;-15917.19;4993627;28;51318;-56
2023/04/24 09:44:28;;;;;;;;;3.00;1.00;;;;;-147.17;100.00;-15917.19;4993177;28;51178;-56
2023/04/24 09:46:56;;;;;;;;;0.00;0.00;;;;;-147.17;100.00;-15917.19;4993859;28;51078;-57
2023/04/24 09:49:28;;;;;;;;;0.00;0.00;;;;;-147.17;100.00;-15917.19;4993844;28;51077;-57
2023/04/24 09:52:11;;;;;;;;;0.00;0.00;;;;;-147.17;100.00;-15917.19;4992446;28;51295;-57
2023/04/24 09:54:37;;;;;;;;;0.00;0.00;;;;;-147.17;100.00;-15917.19;4993840;28;51089;-58
2023/04/24 09:57:03;;;;;;;;;0.00;0.00;;;;;-147.17;100.00;-15917.19;4990602;28;51280;-59
2023/04/24 09:59:29;;;;;;;;;3.00;3.00;;;;;-147.17;100.00;-15917.19;4990694;28;51194;-56
2023/04/24 10:01:54;;;;;;;;;0.00;0.00;;;;;-147.17;100.00;-15917.19;4992688;28;51283;-57
2023/04/24 10:04:27;;;;;;;;;0.00;0.00;;;;;-147.17;100.00;-15917.19;5013563;28;51038;-57
2023/04/24 10:06:56;;;;;;;;;0.00;0.00;;;;;-147.17;100.00;-15917.19;4995030;28;54131;-58
2023/04/24 10:09:24;;;;;;;;;0.00;0.00;;;;;-147.17;100.00;-15917.19;5013297;28;50991;-58
2023/04/24 10:11:53;;;;;;;;;0.00;0.00;;;;;-147.17;100.00;-15917.19;5013369;28;51029;-58
2023/04/24 10:14:20;;;;;;;;;0.00;0.00;;;;;-147.17;100.00;-15917.19;5013575;28;51292;-57
2023/04/24 10:16:47;;;;;;;;;0.00;0.00;;;;;-147.17;100.00;-15917.19;5012001;28;51844;-57
2023/04/24 10:19:13;;;;;;;;;2.00;2.00;;;;;-147.17;100.00;-15917.19;5012370;28;51200;-57
2023/04/24 10:21:42;;;;;;;;;0.00;0.00;;;;;-147.17;100.00;-15917.19;5013527;28;50939;-57
2023/04/24 10:24:15;;;;;;;;;5.00;4.33;;;;;-147.17;100.00;-15917.19;5013497;28;51118;-57
2023/04/24 10:26:41;;;;;;;;;0.00;0.00;;;;;-147.17;100.00;-15917.19;4996072;28;51112;-57
2023/04/24 10:29:09;;;;;;;;;0.00;0.00;;;;;-147.17;100.00;-15917.19;5013200;28;51110;-62
2023/04/24 10:31:36;;;;;;;;;0.00;0.00;;;;;-147.17;100.00;-15917.19;5012277;28;50974;-58
2023/04/24 10:34:04;;;;;;;;;0.00;0.00;;;;;-147.17;100.00;-15917.19;5011476;28;51117;-59
2023/04/24 10:36:32;;;;;;;;;0.00;0.00;;;;;-147.17;100.00;-15917.19;5012872;28;51843;-58
2023/04/24 10:38:59;;;;;;;;;0.00;0.00;;;;;-147.17;100.00;-15917.19;5011446;28;51074;-58
2023/04/24 10:41:26;;;;;;;;;0.00;0.00;;;;;-147.17;100.00;-15917.19;5011533;28;51140;-57
2023/04/24 10:44:11;;;;;;;;;0.00;0.00;;;;;-147.17;100.00;-15917.19;5012762;28;50898;-58
2023/04/24 10:46:38;;;;;;;;;0.00;0.00;;;;;-147.17;100.00;-15917.19;5012933;28;51909;-58
2023/04/24 10:49:06;;;;;;;;;0.00;0.00;;;;;-147.17;100.00;-15917.19;5012521;28;51109;-57
2023/04/24 10:51:53;;;;;;;;;0.00;0.00;;;;;-147.17;100.00;-15917.19;5013198;28;51138;-58
2023/04/24 10:54:45;;;;;;;;;0.00;0.00;;;;;-147.17;100.00;-15917.19;5012225;28;51308;-58
2023/04/24 10:57:30;;;;;;;;;0.00;0.00;;;;;-147.17;100.00;-15917.19;4991204;28;52152;-57